Fallon, NV

1:40 AM PDT on August 31, 2014 (GMT -0700)
North Fallon-Rice Rd | Change Station
CLOSE
Current Station
Personal Weather Station
Location: Fallon, NV
Elevation: 3980 ft
Nearby Weather Stations

Elev 3980 ft 39.50 °N, 118.78 °W | Updated 6 seconds ago

Clear
Clear
68.4 °F
Feels Like 68.4 °F
N
3.1
Wind Variable Wind from NNW
Gusts 5.4 mph

Today
High -- | Low -- °F
--% Chance of Precip.
Yesterday
High -- | Low -- °F
Precip. -- in
6:22 AM 7:27 PM
Waxing Crescent, 29% visible
Pressure 29.90 in
Visibility 10.0 miles
Clouds Clear
Dew Point 30 °F
Humidity 24%
Rainfall 0.00 in
Snow Depth Not available.
UV 0 out of 12
Pollen 9.00 out of 12
Air Quality Not available.
Flu Activity Not available.
METAR KNFL 310756Z AUTO 25003KT 10SM CLR 19/M01 A2998 RMK AO2 SLP123 T01891006 403390144

More Conditions Fewer Conditions

Pressure 29.90 in
Visibility 10.0 miles
Clouds Clear
Dew Point 30 °F
Humidity 24%
Rainfall 0.00 in
Snow Depth Not available.
UV 0 out of 12
Pollen 9.00 out of 12
Air Quality Not available.
Flu Activity Not available.
METAR KNFL 310756Z AUTO 25003KT 10SM CLR 19/M01 A2998 RMK AO2 SLP123 T01891006 403390144

More Conditions Fewer Conditions

10-Day Weather Forecast

Almanac

Astronomy

Aug. 31, 2014 Rise Set
Actual Time 6:22 AM PDT 7:27 PM PDT
Civil Twilight 5:54 AM PDT 7:54 PM PDT
Nautical Twilight 5:22 AM PDT 8:27 PM PDT
Astronomical Twilight 4:47 AM PDT 9:01 PM PDT
Moon 12:12 PM PDT 10:47 PM PDT
Length of Visible Light 14h 00m
Length of Day
13h 04m
Tomorrow will be 2m 29s shorter.
Waxing Crescent, 29% of the Moon is Illuminated
Today
Waxing Crescent
Sep 2
First Quarter
Sep 8
Full
Sep 15
Last Quarter
Sep 24
New

Today's Extremes

State Highs State Lows

Community

WunderPhotos

Upload Photos

1,748,826 photos uploaded!

Nearby

Snow Depth

Station Depth Elevation
Mt. Rose Ski Area 0 in 8850 ft
Marlette Lake 0 in 8000 ft
Big Creek Summit 1 in 8700 ft
Lewis Peak 0 in 7400 ft
Lamance Creek 1 in 6000 ft

Earthquake Activity

City Distance Mag. Time & Date
No recent earthquake activity has been reported nearby.
Minimum magnitude displayed is 2.5.

Coastal Water Temperatures

Place Temperature
No Stations Reporting

Nearby Weather Stations